Time;durP1;ratioP1;P1;durP2;ratioP2;P2;SDS_P1;SDS_P2;PMS_P1;PMS_P2;Temp;Humidity;BMP_temperature;BMP_pressure;BME280_temperature;BME280_humidity;BME280_pressure;Samples;Min_cycle;Max_cycle;Signal;HPM_P1;HPM_P2
2021/07/19 00:02:10;;;;;;;4.35;3.75;;;;;;;21.64;61.99;97635.56;5033163;28;20537;-77
2021/07/19 00:04:43;;;;;;;5.03;4.13;;;;;;;21.60;61.79;97637.28;5001736;28;20033;-77
2021/07/19 00:07:09;;;;;;;8.35;3.80;;;;;;;21.59;62.06;97631.22;5037482;28;20511;-77
2021/07/19 00:09:35;;;;;;;4.82;4.32;;;;;;;21.61;61.85;97636.19;5049445;28;20116;-77
2021/07/19 00:12:02;;;;;;;4.80;4.03;;;;;;;21.58;61.96;97634.94;5029988;28;20028;-77
2021/07/19 00:14:28;;;;;;;4.40;3.90;;;;;;;21.54;61.98;97627.88;5049819;28;20033;-77
2021/07/19 00:16:54;;;;;;;4.28;3.85;;;;;;;21.54;61.94;97633.19;5049607;28;20025;-77
2021/07/19 00:19:20;;;;;;;6.30;4.78;;;;;;;21.54;62.00;97641.13;5048705;28;20025;-77
2021/07/19 00:21:45;;;;;;;7.22;4.88;;;;;;;21.49;61.97;97637.53;5048791;28;20090;-77
2021/07/19 00:24:11;;;;;;;6.43;4.88;;;;;;;21.49;61.99;97631.47;5047968;28;20460;-77
2021/07/19 00:26:36;;;;;;;7.35;4.32;;;;;;;21.38;62.03;97624.81;5031616;28;20041;-77
2021/07/19 00:29:02;;;;;;;5.15;4.50;;;;;;;21.39;61.81;97632.47;5059638;28;20061;-77
2021/07/19 00:31:31;;;;;;;4.75;3.78;;;;;;;21.38;61.96;97630.91;5029618;28;20389;-77
2021/07/19 00:33:57;;;;;;;4.47;3.80;;;;;;;21.38;61.97;97630.91;5049472;28;20040;-77
2021/07/19 00:36:22;;;;;;;6.82;4.45;;;;;;;21.33;62.19;97617.78;5032392;28;20029;-77
2021/07/19 00:38:48;;;;;;;5.20;4.60;;;;;;;21.31;62.28;97630.56;5039620;28;20017;-77
2021/07/19 00:41:13;;;;;;;4.00;3.70;;;;;;;21.20;62.28;97619.44;5044640;28;20055;-77
2021/07/19 00:43:38;;;;;;;4.45;3.92;;;;;;;21.22;62.38;97627.09;5045221;28;20029;-77
2021/07/19 00:46:04;;;;;;;5.97;5.20;;;;;;;21.21;62.22;97622.84;5015824;28;20032;-77
2021/07/19 00:48:30;;;;;;;3.85;3.42;;;;;;;21.21;62.41;97631.56;5032541;28;20028;-77
2021/07/19 00:50:55;;;;;;;5.13;4.30;;;;;;;21.12;62.62;97620.94;5030410;28;20514;-77
2021/07/19 00:53:20;;;;;;;6.05;4.65;;;;;;;21.07;62.60;97625.56;5024941;28;20036;-77
2021/07/19 00:55:47;;;;;;;4.72;3.83;;;;;;;21.08;63.01;97627.16;5016081;28;20045;-77
2021/07/19 00:58:13;;;;;;;4.18;3.75;;;;;;;21.02;62.63;97629.13;5039596;28;20033;-77
2021/07/19 01:00:53;;;;;;;5.53;4.10;;;;;;;20.93;62.75;97625.63;5027629;28;20536;-77
2021/07/19 01:03:19;;;;;;;5.57;4.45;;;;;;;21.05;62.70;97623.22;5043511;23;20045;-78
2021/07/19 01:05:45;;;;;;;3.97;3.67;;;;;;;21.02;62.50;97623.81;4989850;28;20044;-78
2021/07/19 01:08:10;;;;;;;5.18;4.40;;;;;;;21.01;62.82;97614.34;5009034;28;20492;-78
2021/07/19 01:10:36;;;;;;;6.22;3.90;;;;;;;21.01;62.58;97621.47;5009881;28;20125;-78
2021/07/19 01:13:03;;;;;;;6.28;4.30;;;;;;;21.04;62.38;97626.97;4992454;28;20520;-77
2021/07/19 01:15:31;;;;;;;4.88;4.43;;;;;;;20.98;62.21;97612.28;5009495;28;20044;-77
2021/07/19 01:17:56;;;;;;;7.32;4.63;;;;;;;21.04;62.11;97619.03;5009624;28;20431;-77
2021/07/19 01:20:31;;;;;;;4.55;3.75;;;;;;;20.85;62.53;97613.13;4990629;28;20034;-77
2021/07/19 01:23:13;;;;;;;5.25;4.80;;;;;;;20.87;62.27;97616.25;4992800;28;20069;-77
2021/07/19 01:25:45;;;;;;;5.43;4.03;;;;;;;20.94;61.81;97621.94;4990101;28;20523;-78
2021/07/19 01:28:34;;;;;;;5.38;4.85;;;;;;;21.01;61.66;97611.69;5009470;28;20030;-77
2021/07/19 01:31:03;;;;;;;4.35;3.95;;;;;;;21.06;61.86;97614.22;4983106;28;20045;-77
2021/07/19 01:33:32;;;;;;;7.38;4.85;;;;;;;21.17;61.36;97608.66;4996781;28;20041;-77
2021/07/19 01:35:59;;;;;;;4.82;4.25;;;;;;;21.17;61.28;97609.44;4997101;28;20030;-78
2021/07/19 01:38:25;;;;;;;5.05;4.57;;;;;;;21.22;61.20;97611.19;4995100;28;20417;-78
2021/07/19 01:40:51;;;;;;;5.07;4.28;;;;;;;21.16;61.35;97604.44;4996347;28;20026;-78
2021/07/19 01:43:17;;;;;;;5.18;4.70;;;;;;;21.21;61.24;97609.63;4996577;28;20028;-78
2021/07/19 01:45:42;;;;;;;5.13;4.25;;;;;;;21.19;60.94;97606.50;4994750;28;20030;-78
2021/07/19 01:48:10;;;;;;;5.18;4.68;;;;;;;21.09;61.00;97608.28;4980406;28;20026;-78
2021/07/19 01:50:36;;;;;;;5.05;4.47;;;;;;;21.06;61.02;97600.19;5012887;28;20500;-78
2021/07/19 01:53:03;;;;;;;5.13;4.63;;;;;;;21.06;61.01;97610.75;5012659;28;20116;-80
2021/07/19 01:55:29;;;;;;;5.32;4.28;;;;;;;20.98;61.13;97599.06;5019529;28;20036;-80
2021/07/19 01:57:54;;;;;;;5.15;4.50;;;;;;;20.99;61.70;97607.75;5012630;28;20030;-80
2021/07/19 02:00:20;;;;;;;5.43;4.60;;;;;;;20.95;61.92;97603.06;4996619;28;20032;-78
2021/07/19 02:02:51;;;;;;;5.60;4.28;;;;;;;20.87;62.28;97605.66;5013024;28;20571;-78
2021/07/19 02:05:17;;;;;;;5.63;4.80;;;;;;;20.82;62.43;97613.72;4991467;28;20030;-78
2021/07/19 02:07:43;;;;;;;5.47;4.00;;;;;;;20.72;62.89;97604.16;4989725;28;20048;-78
2021/07/19 02:10:10;;;;;;;5.65;4.53;;;;;;;20.67;63.30;97605.06;5006643;28;20035;-78
2021/07/19 02:12:39;;;;;;;4.82;4.35;;;;;;;20.53;63.40;97610.38;5002808;28;20045;-78
2021/07/19 02:15:27;;;;;;;5.07;4.53;;;;;;;20.47;63.58;97608.91;4996167;28;20068;-78
2021/07/19 02:17:56;;;;;;;5.82;4.65;;;;;;;20.44;63.65;97606.06;5024094;28;20058;-78
2021/07/19 02:20:23;;;;;;;8.57;5.40;;;;;;;20.43;63.76;97607.94;4993189;28;20384;-77
2021/07/19 02:22:48;;;;;;;5.35;4.90;;;;;;;20.39;64.03;97604.31;5007805;28;20034;-78
2021/07/19 02:25:15;;;;;;;4.95;4.45;;;;;;;20.32;63.85;97610.03;5007574;28;20512;-77
2021/07/19 02:27:47;;;;;;;4.90;4.18;;;;;;;20.19;64.09;97613.47;5012009;28;20056;-78
2021/07/19 02:30:16;;;;;;;5.50;5.00;;;;;;;20.22;63.92;97618.19;5003455;28;20465;-78
2021/07/19 02:32:44;;;;;;;6.45;4.68;;;;;;;20.27;63.67;97612.78;5005446;28;20037;-78
2021/07/19 02:35:12;;;;;;;6.03;4.40;;;;;;;20.26;63.98;97618.34;4994990;28;20427;-78
2021/07/19 02:37:39;;;;;;;5.22;4.68;;;;;;;20.25;64.15;97616.78;5008971;28;20030;-77
2021/07/19 02:40:05;;;;;;;6.18;5.05;;;;;;;20.21;64.20;97620.00;4993858;28;20033;-77
2021/07/19 02:42:31;;;;;;;6.38;5.20;;;;;;;20.17;63.99;97619.06;5008890;28;20041;-77
2021/07/19 02:44:57;;;;;;;5.57;4.55;;;;;;;20.13;63.98;97615.41;5003763;28;20018;-77
2021/07/19 02:47:25;;;;;;;5.53;4.47;;;;;;;20.04;64.05;97622.47;4979878;28;20037;-77
2021/07/19 02:49:50;;;;;;;5.40;4.53;;;;;;;20.07;64.09;97621.91;5008370;28;20026;-78
2021/07/19 02:52:16;;;;;;;8.98;4.90;;;;;;;20.04;64.24;97619.84;5010366;28;20468;-78
2021/07/19 02:54:41;;;;;;;6.90;4.57;;;;;;;19.98;64.51;97618.38;5003231;28;20038;-78
2021/07/19 02:57:08;;;;;;;8.07;5.30;;;;;;;19.95;64.30;97625.03;5006542;28;20468;-78
2021/07/19 02:59:33;;;;;;;6.43;4.78;;;;;;;20.02;64.07;97622.78;5012052;28;20030;-78
2021/07/19 03:02:00;;;;;;;5.22;4.60;;;;;;;19.95;64.07;97614.47;4982938;28;20029;-80
2021/07/19 03:04:26;;;;;;;6.20;4.97;;;;;;;19.88;64.62;97614.06;5004123;28;20072;-78
2021/07/19 03:06:52;;;;;;;5.85;5.25;;;;;;;19.86;65.16;97618.88;5007221;28;20153;-77
2021/07/19 03:09:19;;;;;;;7.05;5.05;;;;;;;19.75;65.64;97612.22;5009699;28;20030;-78
2021/07/19 03:11:49;;;;;;;6.45;5.85;;;;;;;19.63;65.79;97618.72;5010767;28;20034;-78
2021/07/19 03:14:23;;;;;;;5.82;4.72;;;;;;;19.53;65.81;97605.69;4994612;28;20030;-78
2021/07/19 03:16:50;;;;;;;7.55;5.18;;;;;;;19.60;65.74;97598.19;5007225;28;20036;-79
2021/07/19 03:19:17;;;;;;;5.43;4.93;;;;;;;19.56;65.93;97605.13;4994995;28;20056;-79
2021/07/19 03:21:43;;;;;;;6.07;5.28;;;;;;;19.54;65.76;97598.56;5007455;28;20042;-80
2021/07/19 03:24:10;;;;;;;5.70;5.10;;;;;;;19.51;65.71;97601.78;5007003;28;20022;-80
2021/07/19 03:26:37;;;;;;;6.10;5.50;;;;;;;19.48;66.17;97613.72;4988201;28;20585;-80
2021/07/19 03:29:04;;;;;;;5.85;5.25;;;;;;;19.44;66.15;97615.38;5005956;28;20044;-80
2021/07/19 03:31:30;;;;;;;5.32;4.82;;;;;;;19.42;65.89;97613.03;4994868;28;20440;-79
2021/07/19 03:33:56;;;;;;;6.30;5.65;;;;;;;19.35;66.23;97606.56;4985998;28;20385;-80
2021/07/19 03:36:21;;;;;;;6.50;5.20;;;;;;;19.35;66.18;97617.13;5008920;28;20037;-80
2021/07/19 03:38:47;;;;;;;5.85;5.25;;;;;;;19.31;66.59;97610.84;5010018;28;20037;-80
2021/07/19 03:41:13;;;;;;;6.82;5.78;;;;;;;19.28;66.65;97618.28;4992726;28;20164;-80
2021/07/19 03:43:40;;;;;;;6.88;5.55;;;;;;;19.25;66.78;97618.84;5010643;28;20026;-79
2021/07/19 03:46:06;;;;;;;6.95;5.22;;;;;;;19.27;66.59;97615.94;4990081;28;20026;-80
2021/07/19 03:48:32;;;;;;;6.32;5.72;;;;;;;19.24;65.99;97621.78;5005146;28;20117;-80
2021/07/19 03:50:58;;;;;;;6.03;5.35;;;;;;;19.24;66.01;97619.94;4992073;28;20044;-80
2021/07/19 03:53:24;;;;;;;6.35;5.28;;;;;;;19.17;66.09;97611.59;4983451;28;20042;-79
2021/07/19 03:55:51;;;;;;;5.78;5.18;;;;;;;19.19;66.59;97625.31;4971829;28;20109;-79
2021/07/19 03:58:19;;;;;;;7.88;5.22;;;;;;;19.03;66.70;97618.69;5007865;28;20034;-80
2021/07/19 04:00:44;;;;;;;6.30;5.45;;;;;;;19.00;66.40;97621.91;5008444;28;20041;-79
2021/07/19 04:03:19;;;;;;;5.85;5.05;;;;;;;18.93;66.82;97616.22;5010428;28;20041;-79
2021/07/19 04:05:45;;;;;;;6.28;5.18;;;;;;;18.95;66.63;97614.84;5004914;28;20050;-79
2021/07/19 04:08:12;;;;;;;6.68;5.38;;;;;;;19.02;66.48;97617.13;5004598;28;20034;-79
2021/07/19 04:10:38;;;;;;;5.72;5.13;;;;;;;19.02;66.96;97617.13;4977991;28;20034;-79
2021/07/19 04:13:07;;;;;;;6.03;5.40;;;;;;;19.03;66.97;97616.81;5001411;28;20049;-79
2021/07/19 04:15:38;;;;;;;6.47;5.28;;;;;;;18.93;67.07;97611.72;4994433;28;20048;-79
2021/07/19 04:18:04;;;;;;;8.35;6.05;;;;;;;19.08;67.07;97614.09;5007686;28;20084;-79
2021/07/19 04:20:29;;;;;;;6.30;5.07;;;;;;;19.07;66.83;97614.41;5004043;28;20022;-79
2021/07/19 04:22:55;;;;;;;6.63;5.28;;;;;;;19.13;66.90;97623.81;4990405;28;20111;-79
2021/07/19 04:25:21;;;;;;;7.13;6.03;;;;;;;19.16;66.76;97614.50;4999309;28;20125;-79
2021/07/19 04:27:46;;;;;;;6.43;5.47;;;;;;;19.18;66.96;97618.44;5007685;28;20026;-79
2021/07/19 04:30:13;;;;;;;7.85;5.47;;;;;;;19.30;67.25;97633.84;5003754;28;20030;-79
2021/07/19 04:32:42;;;;;;;7.03;5.80;;;;;;;19.33;67.03;97632.47;4987751;28;20041;-79
2021/07/19 04:35:18;;;;;;;5.75;5.07;;;;;;;19.20;66.61;97620.81;5002552;28;20041;-79
2021/07/19 04:37:47;;;;;;;7.63;4.65;;;;;;;19.37;65.94;97614.97;5004241;28;20030;-79
2021/07/19 04:40:13;;;;;;;6.70;5.93;;;;;;;19.42;65.83;97625.44;4992808;28;20022;-79
2021/07/19 04:42:39;;;;;;;8.10;5.88;;;;;;;19.46;66.20;97624.56;5008005;28;20056;-79
2021/07/19 04:45:05;;;;;;;6.97;5.38;;;;;;;19.44;66.70;97621.44;5003563;28;20041;-79
2021/07/19 06:42:32;;;;;;;5.80;5.28;;;;;;;22.20;63.58;97643.88;5042359;27;2534151;-79
2021/07/19 06:44:59;;;;;;;5.65;4.72;;;;;;;23.03;60.23;97650.22;5075469;28;20035;-79
2021/07/19 06:47:27;;;;;;;5.07;4.68;;;;;;;23.17;59.04;97638.34;5112216;28;20114;-80
2021/07/19 06:49:54;;;;;;;6.85;5.60;;;;;;;23.73;58.13;97645.53;5109762;28;20106;-78
2021/07/19 06:52:20;;;;;;;5.32;4.78;;;;;;;23.92;57.73;97640.66;5085910;28;20073;-79
2021/07/19 06:54:47;;;;;;;6.38;5.05;;;;;;;23.84;57.27;97643.38;5091096;28;20424;-76
2021/07/19 06:57:12;;;;;;;5.80;4.55;;;;;;;24.12;57.03;97633.03;5105300;28;20061;-78
2021/07/19 06:59:39;;;;;;;5.95;4.40;;;;;;;24.31;56.00;97641.38;5075574;28;20084;-78
2021/07/19 07:02:05;;;;;;;6.53;5.00;;;;;;;24.08;56.79;97637.44;5104705;28;20024;-78
2021/07/19 07:04:30;;;;;;;6.53;4.85;;;;;;;24.26;56.14;97638.13;5062936;28;20549;-77
2021/07/19 07:06:56;;;;;;;5.07;4.55;;;;;;;24.14;57.29;97628.16;5090176;28;20080;-79
2021/07/19 07:09:22;;;;;;;6.15;4.72;;;;;;;24.63;56.13;97627.72;5049293;28;20036;-79
2021/07/19 07:11:50;;;;;;;5.15;4.75;;;;;;;24.71;54.45;97629.56;5059576;28;20115;-77
2021/07/19 07:14:16;;;;;;;5.85;4.88;;;;;;;24.79;54.54;97627.91;5060340;28;20032;-80
2021/07/19 07:16:42;;;;;;;5.47;4.50;;;;;;;24.83;54.68;97629.59;5088060;28;20047;-77
2021/07/19 07:19:07;;;;;;;5.05;4.65;;;;;;;24.86;53.81;97628.94;5068300;28;20241;-77
2021/07/19 07:21:33;;;;;;;6.05;5.10;;;;;;;24.89;54.05;97627.50;5081694;28;20056;-78
2021/07/19 07:23:59;;;;;;;6.53;4.70;;;;;;;24.97;54.14;97623.22;5070735;28;20054;-80
2021/07/19 07:26:26;;;;;;;5.40;3.78;;;;;;;25.27;53.98;97621.22;5070718;28;21145;-79
2021/07/19 07:28:53;;;;;;;6.25;4.60;;;;;;;24.95;53.10;97620.06;5088116;28;20067;-80
2021/07/19 07:31:20;;;;;;;6.60;4.93;;;;;;;24.69;54.50;97623.75;5054406;28;20494;-79
2021/07/19 07:33:46;;;;;;;5.00;4.50;;;;;;;24.94;53.44;97610.53;5054322;28;20418;-78
2021/07/19 07:36:12;;;;;;;5.72;4.70;;;;;;;25.17;53.53;97622.41;5054329;28;20038;-79
2021/07/19 07:38:37;;;;;;;5.15;4.47;;;;;;;25.50;52.97;97618.94;5054696;28;20279;-79
2021/07/19 07:41:03;;;;;;;5.90;4.72;;;;;;;25.30;52.94;97620.56;5087472;28;20456;-78
2021/07/19 07:43:29;;;;;;;5.43;4.70;;;;;;;25.60;51.87;97613.16;5088290;28;20036;-77
2021/07/19 07:45:55;;;;;;;5.40;4.90;;;;;;;25.51;52.50;97619.69;5071852;28;20398;-78
2021/07/19 07:48:22;;;;;;;5.68;4.90;;;;;;;25.70;52.21;97605.81;5070762;28;20502;-78
2021/07/19 07:50:48;;;;;;;5.07;4.38;;;;;;;26.05;51.88;97611.53;5087442;28;20386;-79
2021/07/19 07:53:14;;;;;;;5.32;4.78;;;;;;;26.26;50.99;97614.03;5061059;28;20024;-77
2021/07/19 07:55:39;;;;;;;6.15;4.47;;;;;;;26.22;51.58;97621.19;5041319;28;20028;-78
2021/07/19 07:58:08;;;;;;;6.20;5.43;;;;;;;25.93;50.91;97625.63;5027194;28;20074;-77
2021/07/19 08:00:34;;;;;;;5.22;4.72;;;;;;;26.06;51.15;97620.28;5056030;28;20127;-77
2021/07/19 08:03:00;;;;;;;6.95;4.78;;;;;;;26.29;51.15;97623.28;5042309;28;20123;-77
2021/07/19 08:05:28;;;;;;;5.63;4.35;;;;;;;26.62;51.02;97624.97;5049665;28;20498;-77
2021/07/19 08:07:54;;;;;;;5.22;4.70;;;;;;;26.37;50.15;97621.59;5065519;28;20050;-78
2021/07/19 08:10:19;;;;;;;4.05;3.75;;;;;;;26.58;50.42;97618.75;5051917;28;20470;-78
2021/07/19 08:12:46;;;;;;;5.35;4.35;;;;;;;26.77;49.66;97624.28;5072525;28;20189;-78
2021/07/19 08:15:14;;;;;;;6.18;4.72;;;;;;;26.72;49.68;97622.63;5053949;28;20509;-77
2021/07/19 08:17:39;;;;;;;6.18;5.00;;;;;;;27.09;50.22;97617.13;5054951;28;20032;-77
2021/07/19 08:20:06;;;;;;;5.55;4.45;;;;;;;27.31;49.25;97616.94;5071069;28;20113;-77
2021/07/19 08:22:31;;;;;;;4.50;3.80;;;;;;;27.24;48.19;97609.47;5035848;28;20027;-78
2021/07/19 08:24:58;;;;;;;5.18;4.68;;;;;;;27.39;47.85;97610.63;5053619;28;20032;-77
2021/07/19 08:27:24;;;;;;;4.50;4.10;;;;;;;27.34;47.61;97603.63;5049087;28;20032;-77
2021/07/19 08:29:50;;;;;;;4.90;3.90;;;;;;;27.71;46.90;97611.41;5070278;28;20039;-78
2021/07/19 08:32:17;;;;;;;4.43;4.00;;;;;;;28.15;46.02;97610.50;5054037;28;20032;-78
2021/07/19 08:34:45;;;;;;;4.85;4.00;;;;;;;28.34;45.64;97599.84;5055638;28;20229;-78
2021/07/19 08:37:12;;;;;;;4.60;3.90;;;;;;;27.91;45.50;97606.13;5055839;28;20081;-77
2021/07/19 08:39:38;;;;;;;4.68;3.58;;;;;;;27.97;45.38;97608.22;5071296;28;20031;-79
2021/07/19 08:42:04;;;;;;;4.32;3.50;;;;;;;28.13;43.76;97602.81;5049935;28;20032;-78
2021/07/19 08:44:29;;;;;;;3.50;3.15;;;;;;;27.93;44.72;97601.22;5052653;28;20032;-78
2021/07/19 08:46:55;;;;;;;5.32;3.22;;;;;;;27.44;45.37;97592.44;5055406;28;20036;-80
2021/07/19 08:49:20;;;;;;;3.50;3.20;;;;;;;28.04;44.35;97598.78;5071165;28;20032;-77
2021/07/19 08:51:46;;;;;;;3.50;3.20;;;;;;;28.38;44.37;97589.19;5048759;28;20110;-81
2021/07/19 08:54:13;;;;;;;3.28;2.97;;;;;;;28.29;42.73;97599.31;5044377;28;20115;-77
2021/07/19 08:56:39;;;;;;;4.57;3.28;;;;;;;28.32;43.06;97599.38;5052016;28;20028;-79
2021/07/19 08:59:07;;;;;;;4.75;3.60;;;;;;;28.53;43.09;97582.19;5067234;28;20024;-77
2021/07/19 09:01:34;;;;;;;3.33;3.03;;;;;;;28.89;41.72;97589.06;5051565;28;20063;-78
2021/07/19 09:04:00;;;;;;;3.33;3.03;;;;;;;28.77;41.56;97584.63;5054570;28;20024;-78
2021/07/19 09:06:25;;;;;;;3.47;3.17;;;;;;;28.87;41.62;97588.63;5067756;28;20161;-77
2021/07/19 09:08:53;;;;;;;3.63;3.10;;;;;;;28.64;42.04;97585.91;5054333;28;20336;-77
2021/07/19 09:11:20;;;;;;;3.63;3.35;;;;;;;28.95;40.98;97579.56;5052372;28;20024;-78
2021/07/19 09:13:59;;;;;;;3.50;3.20;;;;;;;29.10;41.58;97595.94;5048556;28;20033;-78
2021/07/19 09:16:26;;;;;;;3.97;3.20;;;;;;;29.08;40.45;97587.44;5054210;28;20465;-77
2021/07/19 09:19:10;;;;;;;3.08;2.78;;;;;;;29.36;40.48;97581.06;5053421;28;20081;-78
2021/07/19 09:21:37;;;;;;;3.65;2.97;;;;;;;29.50;40.96;97584.75;5038982;28;20034;-78
2021/07/19 09:24:15;;;;;;;3.00;2.80;;;;;;;29.08;39.68;97582.88;5051147;28;20055;-80
2021/07/19 09:26:42;;;;;;;3.63;2.88;;;;;;;29.21;40.48;97570.09;5047262;28;20111;-78
2021/07/19 09:29:10;;;;;;;11.30;3.78;;;;;;;29.42;39.03;97563.53;5053681;28;20036;-79
2021/07/19 09:31:41;;;;;;;7.57;2.88;;;;;;;29.51;38.33;97566.75;5071484;28;20390;-78
2021/07/19 09:34:18;;;;;;;6.10;3.05;;;;;;;29.78;39.85;97575.59;5053877;28;20078;-79
2021/07/19 09:37:04;;;;;;;5.53;3.15;;;;;;;29.90;40.17;97569.25;5050370;28;20106;-78
2021/07/19 09:39:32;;;;;;;3.47;3.00;;;;;;;30.03;39.02;97567.91;5070016;28;20032;-77
2021/07/19 09:42:09;;;;;;;3.90;3.50;;;;;;;29.65;38.25;97564.28;5037071;28;20347;-77
2021/07/19 09:44:34;;;;;;;5.40;2.92;;;;;;;29.72;40.22;97563.59;5052972;28;20093;-77
2021/07/19 09:47:06;;;;;;;4.10;3.80;;;;;;;29.78;40.76;97564.84;5039110;28;20497;-78
2021/07/19 09:49:34;;;;;;;4.43;3.25;;;;;;;29.64;40.17;97562.72;5032881;28;20040;-79
2021/07/19 09:52:02;;;;;;;4.00;3.70;;;;;;;29.50;41.19;97560.59;5047383;28;20360;-78
2021/07/19 09:54:36;;;;;;;3.25;2.95;;;;;;;30.24;39.28;97561.25;5069351;28;20111;-78
2021/07/19 09:57:01;;;;;;;3.83;3.53;;;;;;;30.42;39.98;97554.22;5054059;28;20039;-78
2021/07/19 09:59:27;;;;;;;3.88;3.58;;;;;;;30.02;39.86;97563.69;5035537;28;20032;-79
2021/07/19 10:01:52;;;;;;;4.85;3.60;;;;;;;30.24;40.38;97556.66;5034368;28;20023;-77
2021/07/19 10:04:18;;;;;;;4.60;3.10;;;;;;;29.99;38.01;97553.66;5052519;28;20077;-77
2021/07/19 10:06:46;;;;;;;4.07;3.33;;;;;;;30.10;39.54;97553.03;5087842;28;20060;-77
2021/07/19 10:09:13;;;;;;;4.55;3.50;;;;;;;30.06;39.98;97548.38;5036069;28;20031;-77
2021/07/19 10:11:43;;;;;;;3.95;3.10;;;;;;;30.41;40.09;97546.53;5053026;28;20159;-77
2021/07/19 10:14:09;;;;;;;3.40;3.10;;;;;;;30.46;38.06;97542.75;5051825;28;20557;-77
2021/07/19 10:16:36;;;;;;;3.20;2.90;;;;;;;30.78;38.29;97538.47;5035078;28;20402;-78
2021/07/19 10:19:03;;;;;;;4.15;3.67;;;;;;;30.79;38.12;97539.22;5051857;28;20095;-77
2021/07/19 10:21:30;;;;;;;3.40;3.10;;;;;;;31.04;37.88;97539.50;5053756;28;20024;-79
2021/07/19 10:24:14;;;;;;;3.17;2.80;;;;;;;30.99;37.48;97537.16;5068192;28;20532;-79
2021/07/19 10:26:40;;;;;;;3.17;2.87;;;;;;;31.16;36.47;97549.97;5069667;28;20115;-78
2021/07/19 10:29:08;;;;;;;4.38;2.90;;;;;;;31.47;35.17;97545.22;5083285;28;20748;-79
2021/07/19 10:31:36;;;;;;;4.93;3.20;;;;;;;31.97;35.05;97549.41;5069798;28;20040;-79
2021/07/19 10:34:04;;;;;;;4.63;3.53;;;;;;;30.68;35.97;97546.44;5066101;28;20038;-78
2021/07/19 10:36:33;;;;;;;4.10;3.63;;;;;;;30.10;37.19;97535.00;5064056;28;20494;-81
2021/07/19 10:39:03;;;;;;;5.72;3.38;;;;;;;30.17;36.28;97537.75;5052616;28;20034;-77
2021/07/19 10:41:28;;;;;;;16.23;3.70;;;;;;;30.97;35.89;97534.81;5033226;28;20028;-78
2021/07/19 10:44:08;;;;;;;3.40;2.85;;;;;;;31.33;36.67;97531.66;5070378;28;20119;-78
2021/07/19 10:46:34;;;;;;;35.28;5.75;;;;;;;31.45;36.06;97536.75;5054180;28;20403;-79
2021/07/19 10:49:09;;;;;;;5.03;3.08;;;;;;;31.24;35.01;97528.50;5050054;28;20050;-80
2021/07/19 10:51:39;;;;;;;4.15;3.03;;;;;;;31.36;36.83;97533.63;5037792;28;20034;-78
2021/07/19 10:54:18;;;;;;;3.75;3.42;;;;;;;30.79;35.72;97525.78;5064624;28;20131;-80
2021/07/19 10:56:45;;;;;;;3.95;3.60;;;;;;;30.75;37.16;97528.44;5049525;28;20110;-78
2021/07/19 10:59:22;;;;;;;5.07;3.58;;;;;;;31.06;36.46;97529.13;5046356;28;20024;-79
2021/07/19 11:01:55;;;;;;;3.75;3.35;;;;;;;31.61;34.90;97523.03;5049032;28;20020;-80
2021/07/19 11:04:22;;;;;;;3.95;3.13;;;;;;;31.82;36.24;97516.22;5053264;28;20234;-79
2021/07/19 11:06:49;;;;;;;4.32;3.03;;;;;;;31.41;37.18;97519.81;5047478;28;20028;-80
2021/07/19 11:09:15;;;;;;;4.18;3.75;;;;;;;31.17;36.74;97521.16;5065659;28;20059;-80
2021/07/19 11:11:43;;;;;;;3.65;3.40;;;;;;;30.87;36.17;97524.72;5047767;28;20033;-79
2021/07/19 11:14:16;;;;;;;3.65;3.35;;;;;;;30.86;37.02;97514.34;5052620;28;20443;-79
2021/07/19 11:16:46;;;;;;;4.45;3.63;;;;;;;30.75;37.50;97512.31;5047237;28;20152;-79
2021/07/19 11:19:16;;;;;;;6.25;3.30;;;;;;;30.67;37.38;97512.63;5046251;28;20025;-78
2021/07/19 11:21:43;;;;;;;4.25;3.35;;;;;;;30.33;37.91;97513.41;5030162;28;20028;-78
2021/07/19 11:24:14;;;;;;;4.25;3.83;;;;;;;29.76;38.79;97512.66;5057086;28;20374;-77
2021/07/19 11:26:57;;;;;;;4.68;3.30;;;;;;;30.06;39.75;97510.78;5060699;28;20032;-78
2021/07/19 11:29:38;;;;;;;3.45;3.15;;;;;;;30.31;37.36;97504.91;5065652;28;20032;-79
2021/07/19 11:32:28;;;;;;;3.65;3.30;;;;;;;30.33;37.97;97505.34;5029356;28;20031;-78
2021/07/19 11:35:05;;;;;;;3.78;3.22;;;;;;;30.25;38.55;97507.16;5062972;28;20040;-78
2021/07/19 11:37:42;;;;;;;3.83;3.42;;;;;;;29.57;37.67;97508.94;5055736;28;20496;-78
2021/07/19 11:40:13;;;;;;;4.53;3.30;;;;;;;29.90;36.88;97507.50;5050099;28;20024;-78
2021/07/19 11:42:44;;;;;;;5.43;3.20;;;;;;;29.68;37.97;97511.78;5072269;28;20032;-78
2021/07/19 11:45:16;;;;;;;4.53;3.00;;;;;;;29.52;36.74;97509.25;5033483;28;20123;-78
2021/07/19 11:47:48;;;;;;;3.88;3.13;;;;;;;29.35;38.19;97504.41;5071830;28;20074;-78
2021/07/19 11:50:16;;;;;;;3.47;3.28;;;;;;;29.11;39.24;97507.06;5052433;28;20103;-78
2021/07/19 11:52:44;;;;;;;5.20;3.58;;;;;;;29.10;37.80;97510.91;5067587;28;20043;-78
2021/07/19 11:55:13;;;;;;;3.70;3.30;;;;;;;28.97;39.06;97509.53;5056137;28;20050;-81
2021/07/19 11:57:43;;;;;;;3.20;2.75;;;;;;;28.94;39.12;97507.56;5050113;28;20042;-79
2021/07/19 12:00:12;;;;;;;3.42;3.10;;;;;;;28.22;40.98;97511.56;5033957;28;20344;-77
2021/07/19 12:02:38;;;;;;;3.78;3.30;;;;;;;28.46;39.73;97510.50;5036024;28;20034;-76
2021/07/19 12:05:04;;;;;;;5.32;3.03;;;;;;;28.26;39.00;97503.59;5071681;28;20020;-78
2021/07/19 12:07:29;;;;;;;3.80;3.50;;;;;;;28.79;39.65;97500.41;5073059;28;20059;-79
2021/07/19 12:10:02;;;;;;;3.35;2.90;;;;;;;29.00;36.21;97492.72;5071858;28;20032;-79
2021/07/19 12:12:28;;;;;;;3.72;3.42;;;;;;;29.06;40.08;97499.31;5039484;28;20028;-78
2021/07/19 12:15:00;;;;;;;4.07;3.00;;;;;;;29.10;37.26;97496.72;5070569;28;20036;-79
2021/07/19 12:17:36;;;;;;;3.25;3.05;;;;;;;29.23;37.50;97492.72;5051295;28;20035;-79
2021/07/19 12:20:05;;;;;;;3.55;3.22;;;;;;;29.38;36.03;97484.91;5055810;28;20039;-78
2021/07/19 12:22:32;;;;;;;3.13;2.80;;;;;;;29.62;37.24;97492.53;5072181;28;20097;-79
2021/07/19 12:24:58;;;;;;;3.28;2.97;;;;;;;29.45;37.05;97491.16;5039411;28;20059;-77
2021/07/19 12:27:24;;;;;;;3.35;2.90;;;;;;;28.84;38.66;97492.84;5074730;28;20055;-80
2021/07/19 12:29:50;;;;;;;4.22;3.30;;;;;;;28.64;38.08;97478.72;5064697;28;20031;-78
2021/07/19 12:32:16;;;;;;;3.50;2.88;;;;;;;28.51;38.12;97475.38;5045269;28;20117;-79
2021/07/19 12:34:43;;;;;;;3.22;2.92;;;;;;;28.57;37.88;97476.69;5030368;28;20462;-79
2021/07/19 12:37:09;;;;;;;4.22;3.30;;;;;;;28.13;38.98;97485.00;5055919;28;20758;-77
2021/07/19 12:39:37;;;;;;;3.60;3.03;;;;;;;28.15;38.02;97485.44;5038982;28;20028;-80
2021/07/19 12:42:07;;;;;;;3.08;2.88;;;;;;;28.29;39.61;97481.50;5071156;28;20039;-78
2021/07/19 12:44:33;;;;;;;4.30;3.00;;;;;;;28.37;37.67;97491.22;5039635;28;20032;-78
2021/07/19 12:46:59;;;;;;;3.20;2.90;;;;;;;28.58;36.71;97480.94;5056680;28;20020;-78
2021/07/19 12:49:29;;;;;;;4.55;2.83;;;;;;;28.71;36.90;97467.34;5055140;28;20371;-80
2021/07/19 12:52:01;;;;;;;7.07;3.75;;;;;;;29.16;35.35;97473.84;5066672;28;20024;-80
2021/07/19 12:54:26;;;;;;;4.07;3.47;;;;;;;29.12;38.05;97475.69;5046181;28;20489;-79
2021/07/19 12:56:52;;;;;;;5.90;3.65;;;;;;;28.76;37.51;97467.06;5044726;28;20036;-78
2021/07/19 12:59:18;;;;;;;6.38;3.25;;;;;;;28.31;37.82;97477.34;5045836;28;20042;-78
2021/07/19 13:01:44;;;;;;;4.00;3.70;;;;;;;28.70;37.17;97481.88;5044462;28;20020;-78
2021/07/19 13:04:11;;;;;;;4.18;3.78;;;;;;;28.19;35.98;97470.22;5038400;28;20026;-79
2021/07/19 13:06:38;;;;;;;4.80;3.80;;;;;;;28.57;36.85;97475.91;5053072;28;20419;-78
2021/07/19 13:09:08;;;;;;;4.70;3.65;;;;;;;28.62;36.67;97470.28;5050032;28;20107;-79
2021/07/19 13:11:36;;;;;;;4.65;3.28;;;;;;;28.36;37.40;97473.59;5050950;28;20034;-78
2021/07/19 13:14:09;;;;;;;5.50;4.15;;;;;;;28.36;38.47;97478.94;5053580;28;20554;-78
2021/07/19 13:16:34;;;;;;;5.20;4.30;;;;;;;28.46;38.80;97481.03;5069029;28;20070;-79
2021/07/19 13:19:00;;;;;;;5.15;4.72;;;;;;;28.75;37.99;97473.53;5049003;28;20498;-79
2021/07/19 13:21:26;;;;;;;7.97;5.72;;;;;;;27.96;39.87;97475.50;5049207;28;20096;-78
2021/07/19 13:23:51;;;;;;;6.97;5.68;;;;;;;28.29;39.23;97478.81;5054861;28;20134;-79
2021/07/19 13:26:17;;;;;;;7.43;4.72;;;;;;;28.38;38.86;97474.78;5038286;28;20036;-78
2021/07/19 13:28:43;;;;;;;7.55;5.60;;;;;;;28.37;38.36;97475.13;5071821;28;20032;-77
2021/07/19 13:31:09;;;;;;;5.63;4.90;;;;;;;28.44;37.59;97480.63;5054115;28;20028;-78
2021/07/19 13:33:41;;;;;;;7.18;5.07;;;;;;;28.52;38.18;97470.81;5037894;28;20081;-78